Форум клана ЧПУшников

Информация о пользователе

Привет, Гость! Войдите или зарегистрируйтесь.


Вы здесь » Форум клана ЧПУшников » Лазерные станки


Лазерные станки

Тем 1 страница 80 из 545

Тема Ответов Просмотров Последнее сообщение
876 63009 21-10-2019 13:58:48  hiperlive
583 12384 03-10-2019 20:10:45  Jek44
166 7388 14-03-2019 15:48:56  Vegas 52
0 11 Вчера 23:02:04  Artem14717
0 34 22-10-2019 11:52:41  Vladislav_cv
0 18 22-10-2019 11:45:44  SUIK
1 29 21-10-2019 12:48:49  Kuz
3 62 20-10-2019 16:38:07  kartinka
6 76 18-10-2019 08:58:47  shatrovmaxim
4 1453 16-10-2019 00:31:27  Kenny
9 116 11-10-2019 11:13:41  shatrovmaxim
24 330 01-10-2019 16:22:23  ilya37rus
332 16502 01-10-2019 15:18:13  ilya37rus
206 9381 25-09-2019 16:37:52  adres
4 71 23-09-2019 16:55:57  adres
16 315 21-09-2019 13:50:03  ydav75
44 1164 21-09-2019 13:15:26  ydav75
10 279 21-09-2019 11:07:05  Борис Мишагин
2 62 19-09-2019 13:00:43  chirik
341 31013 19-09-2019 11:34:20  ilya37rus
221 21377 19-09-2019 11:13:05  IFAlice
8 279 17-09-2019 08:02:32  shatrovmaxim
16 567 09-09-2019 18:55:47  tonks
20 144 31-08-2019 11:26:41  valeribeglaryan
1 81 30-08-2019 01:45:31  ilya37rus
4 191 26-08-2019 21:46:47  Dandarrio
197 7083 26-08-2019 21:33:53  Dandarrio
7 150 26-08-2019 08:52:34  nevborisov26
12 253 19-08-2019 06:59:33  Kinetic
2 160 16-08-2019 15:19:26  ilya37rus
31 На ходу пропал луч.  Анатолий w38
3 91 16-08-2019 10:46:54  Andy52280
7 122 16-08-2019 06:23:10  serge78ss
1 86 14-08-2019 20:26:11  ilya37rus
2 116 13-08-2019 07:21:14  RD3
1 57 01-08-2019 17:14:40  Sanana
14 302 25-07-2019 18:15:23  jane
24 310 25-07-2019 10:26:34  Kuz
16 322 24-07-2019 12:28:25  Alex76
10 211 19-07-2019 12:54:43  Sanana
1 140 18-07-2019 22:39:57  Kirian
2 204 16-07-2019 16:16:36  sgluk
42 Мой Veno 503  mikhAN
96 2669 10-07-2019 17:59:24  mikhAN
3 113 05-07-2019 13:03:01  Andy52280
3 232 05-07-2019 10:30:50  qump
132 7588 03-07-2019 19:31:39  igordad
19 438 24-06-2019 13:29:16  igordad
12 265 06-06-2019 23:25:05  АндрейKosiv
2 178 03-06-2019 16:48:51  Andy52280
1 170 27-05-2019 02:42:37  ИгорьМ
1 104 26-05-2019 04:10:06  Bassser
9 242 25-05-2019 17:56:20  Dolflex
171 5261 24-05-2019 19:44:19  musicman3
283 10739 14-05-2019 07:57:39  esb
4 113 13-05-2019 10:56:34  m911yp
7 243 07-05-2019 13:02:02  Kuz
2 185 07-05-2019 12:59:07  Kuz
0 76 03-05-2019 09:57:22  Op023
12 320 02-05-2019 16:59:51  Fredi1903
236 22749 30-04-2019 12:06:13  miamifan91
60 контроллер TL-403  Алексей Степанов
5 135 29-04-2019 18:38:22  Сергеич
148 5154 16-04-2019 17:19:23  WandereR
4 196 10-04-2019 10:19:31  Kuz
37 1915 09-04-2019 22:53:04  musicman3
4 123 06-04-2019 10:49:10  Andy52280
121 4383 05-04-2019 09:04:27  esb
66 AutoLaser  yurk1151
35 1526 02-04-2019 21:52:42  scanwloker
0 119 30-03-2019 00:39:47  Vivan
6 205 24-03-2019 14:50:34  ptolik
56 2764 21-03-2019 15:06:08  vasa29
3 100 21-03-2019 02:52:19  ИгорьМ
23 1039 18-03-2019 10:05:01  Vegas 52
14 466 15-03-2019 11:08:09  Vegas 52
7 360 15-03-2019 10:55:38  Kuz
262 7638 07-03-2019 09:10:05  ilya37rus
14 319 06-03-2019 14:51:28  Kuz
10 249 06-03-2019 14:11:11  D1mitriy
1 113 28-02-2019 14:23:17  Andy52280
16 396 27-02-2019 18:17:37  esb
463 19450 27-02-2019 12:46:26  iamkuchka
0 159 24-02-2019 11:56:21  Mix78

Вы здесь » Форум клана ЧПУшников » Лазерные станки